sensor_id;sensor_type;location;lat;lon;timestamp;P1;durP1;ratioP1;P2;durP2;ratioP2
75048;SDS011;63803;53.120;8.764;2022-10-17T00:01:10;8.30;;;3.60;;
75048;SDS011;63803;53.120;8.764;2022-10-17T00:03:37;6.38;;;3.95;;
75048;SDS011;63803;53.120;8.764;2022-10-17T00:06:05;6.00;;;4.40;;
75048;SDS011;63803;53.120;8.764;2022-10-17T00:08:33;5.82;;;3.75;;
75048;SDS011;63803;53.120;8.764;2022-10-17T00:11:00;8.75;;;4.35;;
75048;SDS011;63803;53.120;8.764;2022-10-17T00:13:32;7.32;;;4.00;;
75048;SDS011;63803;53.120;8.764;2022-10-17T00:15:59;4.95;;;3.90;;
75048;SDS011;63803;53.120;8.764;2022-10-17T00:18:25;6.00;;;3.83;;
75048;SDS011;63803;53.120;8.764;2022-10-17T00:20:51;5.88;;;3.67;;
75048;SDS011;63803;53.120;8.764;2022-10-17T00:23:17;6.70;;;3.97;;
75048;SDS011;63803;53.120;8.764;2022-10-17T00:25:43;8.48;;;4.50;;
75048;SDS011;63803;53.120;8.764;2022-10-17T00:28:13;6.28;;;3.70;;
75048;SDS011;63803;53.120;8.764;2022-10-17T00:30:39;12.63;;;3.92;;
75048;SDS011;63803;53.120;8.764;2022-10-17T00:33:05;6.97;;;3.78;;
75048;SDS011;63803;53.120;8.764;2022-10-17T00:35:32;6.00;;;3.45;;
75048;SDS011;63803;53.120;8.764;2022-10-17T00:37:58;6.90;;;3.65;;
75048;SDS011;63803;53.120;8.764;2022-10-17T00:40:24;7.40;;;3.80;;
75048;SDS011;63803;53.120;8.764;2022-10-17T00:42:49;5.95;;;3.63;;
75048;SDS011;63803;53.120;8.764;2022-10-17T00:47:49;5.35;;;3.15;;
75048;SDS011;63803;53.120;8.764;2022-10-17T00:50:19;8.60;;;3.67;;
75048;SDS011;63803;53.120;8.764;2022-10-17T00:52:45;5.80;;;3.67;;
75048;SDS011;63803;53.120;8.764;2022-10-17T00:55:15;6.45;;;3.42;;
75048;SDS011;63803;53.120;8.764;2022-10-17T00:57:45;5.55;;;3.63;;
75048;SDS011;63803;53.120;8.764;2022-10-17T01:00:11;4.60;;;3.45;;
75048;SDS011;63803;53.120;8.764;2022-10-17T01:02:38;8.82;;;4.05;;
75048;SDS011;63803;53.120;8.764;2022-10-17T01:05:04;5.60;;;3.22;;
75048;SDS011;63803;53.120;8.764;2022-10-17T01:07:31;5.72;;;3.58;;
75048;SDS011;63803;53.120;8.764;2022-10-17T01:09:57;5.55;;;3.08;;
75048;SDS011;63803;53.120;8.764;2022-10-17T01:15:17;4.93;;;3.20;;
75048;SDS011;63803;53.120;8.764;2022-10-17T01:29:04;4.97;;;3.38;;
75048;SDS011;63803;53.120;8.764;2022-10-17T01:31:53;5.78;;;3.22;;
75048;SDS011;63803;53.120;8.764;2022-10-17T01:37:10;4.53;;;3.13;;
75048;SDS011;63803;53.120;8.764;2022-10-17T01:42:22;4.50;;;3.00;;
75048;SDS011;63803;53.120;8.764;2022-10-17T01:44:55;5.85;;;3.22;;
75048;SDS011;63803;53.120;8.764;2022-10-17T01:47:29;4.60;;;3.03;;
75048;SDS011;63803;53.120;8.764;2022-10-17T01:49:57;6.03;;;3.40;;
75048;SDS011;63803;53.120;8.764;2022-10-17T01:52:50;5.75;;;2.72;;
75048;SDS011;63803;53.120;8.764;2022-10-17T01:55:24;6.85;;;3.20;;
75048;SDS011;63803;53.120;8.764;2022-10-17T01:58:00;4.47;;;3.10;;
75048;SDS011;63803;53.120;8.764;2022-10-17T02:00:36;4.95;;;3.30;;
75048;SDS011;63803;53.120;8.764;2022-10-17T02:03:03;5.30;;;3.45;;
75048;SDS011;63803;53.120;8.764;2022-10-17T02:05:37;5.15;;;3.17;;
75048;SDS011;63803;53.120;8.764;2022-10-17T02:08:04;5.35;;;3.00;;
75048;SDS011;63803;53.120;8.764;2022-10-17T02:10:50;5.95;;;3.25;;
75048;SDS011;63803;53.120;8.764;2022-10-17T02:13:29;6.97;;;3.60;;
75048;SDS011;63803;53.120;8.764;2022-10-17T02:16:07;5.32;;;3.17;;
75048;SDS011;63803;53.120;8.764;2022-10-17T02:29:27;4.13;;;2.83;;
75048;SDS011;63803;53.120;8.764;2022-10-17T02:32:00;5.78;;;3.13;;
75048;SDS011;63803;53.120;8.764;2022-10-17T02:34:39;3.15;;;2.70;;
75048;SDS011;63803;53.120;8.764;2022-10-17T02:37:13;5.10;;;2.47;;
75048;SDS011;63803;53.120;8.764;2022-10-17T02:39:42;3.90;;;2.67;;
75048;SDS011;63803;53.120;8.764;2022-10-17T02:42:09;5.70;;;3.13;;
75048;SDS011;63803;53.120;8.764;2022-10-17T02:44:37;4.70;;;2.88;;
75048;SDS011;63803;53.120;8.764;2022-10-17T02:47:16;3.38;;;2.58;;
75048;SDS011;63803;53.120;8.764;2022-10-17T02:49:50;5.15;;;2.95;;
75048;SDS011;63803;53.120;8.764;2022-10-17T02:52:20;6.18;;;2.95;;
75048;SDS011;63803;53.120;8.764;2022-10-17T02:55:02;6.43;;;2.47;;
75048;SDS011;63803;53.120;8.764;2022-10-17T02:57:36;4.55;;;2.80;;
75048;SDS011;63803;53.120;8.764;2022-10-17T03:00:06;3.90;;;2.70;;
75048;SDS011;63803;53.120;8.764;2022-10-17T03:02:39;4.05;;;2.65;;
75048;SDS011;63803;53.120;8.764;2022-10-17T03:05:07;3.65;;;2.70;;
75048;SDS011;63803;53.120;8.764;2022-10-17T03:07:33;4.07;;;2.65;;
75048;SDS011;63803;53.120;8.764;2022-10-17T03:09:59;4.78;;;2.50;;
75048;SDS011;63803;53.120;8.764;2022-10-17T03:12:25;3.42;;;2.60;;
75048;SDS011;63803;53.120;8.764;2022-10-17T03:14:51;4.00;;;2.40;;
75048;SDS011;63803;53.120;8.764;2022-10-17T03:17:17;3.92;;;2.03;;
75048;SDS011;63803;53.120;8.764;2022-10-17T03:19:42;4.00;;;2.50;;
75048;SDS011;63803;53.120;8.764;2022-10-17T03:22:08;2.95;;;2.08;;
75048;SDS011;63803;53.120;8.764;2022-10-17T03:24:34;3.28;;;2.60;;
75048;SDS011;63803;53.120;8.764;2022-10-17T03:27:00;5.15;;;2.53;;
75048;SDS011;63803;53.120;8.764;2022-10-17T03:29:26;4.57;;;2.72;;
75048;SDS011;63803;53.120;8.764;2022-10-17T03:31:51;6.57;;;2.35;;
75048;SDS011;63803;53.120;8.764;2022-10-17T03:34:17;2.88;;;2.30;;
75048;SDS011;63803;53.120;8.764;2022-10-17T03:36:44;4.18;;;2.50;;
75048;SDS011;63803;53.120;8.764;2022-10-17T03:39:10;2.65;;;2.20;;
75048;SDS011;63803;53.120;8.764;2022-10-17T03:41:35;4.78;;;2.40;;
75048;SDS011;63803;53.120;8.764;2022-10-17T03:44:01;5.72;;;2.40;;
75048;SDS011;63803;53.120;8.764;2022-10-17T03:46:27;3.35;;;2.53;;
75048;SDS011;63803;53.120;8.764;2022-10-17T03:48:53;4.07;;;2.40;;
75048;SDS011;63803;53.120;8.764;2022-10-17T03:51:18;4.63;;;2.83;;
75048;SDS011;63803;53.120;8.764;2022-10-17T03:53:45;3.58;;;2.40;;
75048;SDS011;63803;53.120;8.764;2022-10-17T03:56:14;4.25;;;2.65;;
75048;SDS011;63803;53.120;8.764;2022-10-17T03:58:42;3.60;;;2.28;;
75048;SDS011;63803;53.120;8.764;2022-10-17T04:01:09;3.35;;;2.67;;
75048;SDS011;63803;53.120;8.764;2022-10-17T04:03:37;3.88;;;2.42;;
75048;SDS011;63803;53.120;8.764;2022-10-17T04:06:03;3.03;;;2.28;;
75048;SDS011;63803;53.120;8.764;2022-10-17T04:08:30;2.90;;;2.42;;
75048;SDS011;63803;53.120;8.764;2022-10-17T04:10:57;3.03;;;2.40;;
75048;SDS011;63803;53.120;8.764;2022-10-17T04:13:23;2.78;;;2.20;;
75048;SDS011;63803;53.120;8.764;2022-10-17T04:15:56;2.60;;;1.98;;
75048;SDS011;63803;53.120;8.764;2022-10-17T04:18:24;2.63;;;2.25;;
75048;SDS011;63803;53.120;8.764;2022-10-17T04:20:50;3.55;;;2.65;;
75048;SDS011;63803;53.120;8.764;2022-10-17T04:23:15;4.68;;;2.13;;
75048;SDS011;63803;53.120;8.764;2022-10-17T04:25:42;2.45;;;2.20;;
75048;SDS011;63803;53.120;8.764;2022-10-17T04:28:08;4.13;;;2.20;;
75048;SDS011;63803;53.120;8.764;2022-10-17T04:30:33;2.78;;;2.28;;
75048;SDS011;63803;53.120;8.764;2022-10-17T04:32:59;5.47;;;2.42;;
75048;SDS011;63803;53.120;8.764;2022-10-17T04:35:25;3.15;;;2.10;;
75048;SDS011;63803;53.120;8.764;2022-10-17T04:37:51;2.95;;;2.10;;
75048;SDS011;63803;53.120;8.764;2022-10-17T04:40:17;3.75;;;2.45;;
75048;SDS011;63803;53.120;8.764;2022-10-17T04:42:43;3.15;;;2.22;;
75048;SDS011;63803;53.120;8.764;2022-10-17T04:45:09;6.00;;;2.35;;
75048;SDS011;63803;53.120;8.764;2022-10-17T04:47:35;3.35;;;2.15;;
75048;SDS011;63803;53.120;8.764;2022-10-17T04:50:01;3.70;;;2.25;;
75048;SDS011;63803;53.120;8.764;2022-10-17T04:52:28;3.63;;;2.30;;
75048;SDS011;63803;53.120;8.764;2022-10-17T04:54:54;2.97;;;2.15;;
75048;SDS011;63803;53.120;8.764;2022-10-17T04:57:20;2.53;;;2.20;;
75048;SDS011;63803;53.120;8.764;2022-10-17T04:59:46;3.30;;;2.22;;
75048;SDS011;63803;53.120;8.764;2022-10-17T05:02:12;2.50;;;2.28;;
75048;SDS011;63803;53.120;8.764;2022-10-17T05:04:38;3.30;;;2.10;;
75048;SDS011;63803;53.120;8.764;2022-10-17T05:07:04;2.88;;;2.33;;
75048;SDS011;63803;53.120;8.764;2022-10-17T05:09:30;2.95;;;2.30;;
75048;SDS011;63803;53.120;8.764;2022-10-17T05:11:55;6.57;;;2.28;;
75048;SDS011;63803;53.120;8.764;2022-10-17T05:14:21;2.40;;;2.10;;
75048;SDS011;63803;53.120;8.764;2022-10-17T05:16:47;7.65;;;2.17;;
75048;SDS011;63803;53.120;8.764;2022-10-17T05:19:13;3.20;;;2.17;;
75048;SDS011;63803;53.120;8.764;2022-10-17T05:21:39;2.17;;;1.85;;
75048;SDS011;63803;53.120;8.764;2022-10-17T05:24:08;3.28;;;2.30;;
75048;SDS011;63803;53.120;8.764;2022-10-17T05:26:37;2.30;;;2.10;;
75048;SDS011;63803;53.120;8.764;2022-10-17T05:29:03;3.72;;;2.35;;
75048;SDS011;63803;53.120;8.764;2022-10-17T05:31:30;3.05;;;2.00;;
75048;SDS011;63803;53.120;8.764;2022-10-17T05:34:00;2.33;;;1.80;;
75048;SDS011;63803;53.120;8.764;2022-10-17T05:36:27;4.97;;;2.35;;
75048;SDS011;63803;53.120;8.764;2022-10-17T05:38:53;2.50;;;2.28;;
75048;SDS011;63803;53.120;8.764;2022-10-17T05:41:19;5.15;;;2.17;;
75048;SDS011;63803;53.120;8.764;2022-10-17T05:43:45;3.08;;;2.10;;
75048;SDS011;63803;53.120;8.764;2022-10-17T05:46:11;2.33;;;1.70;;
75048;SDS011;63803;53.120;8.764;2022-10-17T05:48:37;2.60;;;2.00;;
75048;SDS011;63803;53.120;8.764;2022-10-17T05:51:04;3.38;;;2.50;;
75048;SDS011;63803;53.120;8.764;2022-10-17T05:53:33;2.33;;;1.77;;
75048;SDS011;63803;53.120;8.764;2022-10-17T05:56:01;8.68;;;2.20;;
75048;SDS011;63803;53.120;8.764;2022-10-17T05:58:32;2.45;;;1.90;;
75048;SDS011;63803;53.120;8.764;2022-10-17T06:00:59;2.63;;;1.80;;
75048;SDS011;63803;53.120;8.764;2022-10-17T06:03:27;4.07;;;2.00;;
75048;SDS011;63803;53.120;8.764;2022-10-17T06:05:53;2.25;;;2.05;;
75048;SDS011;63803;53.120;8.764;2022-10-17T06:08:19;4.00;;;2.42;;
75048;SDS011;63803;53.120;8.764;2022-10-17T06:10:48;2.78;;;2.08;;
75048;SDS011;63803;53.120;8.764;2022-10-17T06:13:15;6.32;;;2.17;;
75048;SDS011;63803;53.120;8.764;2022-10-17T06:15:42;4.22;;;2.10;;
75048;SDS011;63803;53.120;8.764;2022-10-17T06:18:08;2.60;;;2.15;;
75048;SDS011;63803;53.120;8.764;2022-10-17T06:20:34;6.18;;;2.22;;
75048;SDS011;63803;53.120;8.764;2022-10-17T06:23:00;2.97;;;2.00;;
75048;SDS011;63803;53.120;8.764;2022-10-17T06:25:26;2.60;;;1.85;;
75048;SDS011;63803;53.120;8.764;2022-10-17T06:27:53;2.55;;;2.00;;
75048;SDS011;63803;53.120;8.764;2022-10-17T06:30:19;2.83;;;2.05;;
75048;SDS011;63803;53.120;8.764;2022-10-17T06:32:45;5.82;;;2.58;;
75048;SDS011;63803;53.120;8.764;2022-10-17T06:35:10;2.17;;;1.98;;
75048;SDS011;63803;53.120;8.764;2022-10-17T06:37:36;2.05;;;1.85;;
75048;SDS011;63803;53.120;8.764;2022-10-17T06:40:02;2.97;;;2.10;;
75048;SDS011;63803;53.120;8.764;2022-10-17T06:42:29;5.35;;;2.25;;
75048;SDS011;63803;53.120;8.764;2022-10-17T06:44:55;2.25;;;1.85;;
75048;SDS011;63803;53.120;8.764;2022-10-17T06:47:21;2.15;;;1.95;;
75048;SDS011;63803;53.120;8.764;2022-10-17T06:49:47;2.20;;;2.00;;
75048;SDS011;63803;53.120;8.764;2022-10-17T06:52:12;2.05;;;1.55;;
75048;SDS011;63803;53.120;8.764;2022-10-17T06:54:39;2.35;;;1.83;;
75048;SDS011;63803;53.120;8.764;2022-10-17T06:57:04;2.53;;;1.95;;
75048;SDS011;63803;53.120;8.764;2022-10-17T06:59:30;4.72;;;2.13;;
75048;SDS011;63803;53.120;8.764;2022-10-17T07:01:56;2.47;;;2.28;;
75048;SDS011;63803;53.120;8.764;2022-10-17T07:04:22;3.50;;;1.80;;
75048;SDS011;63803;53.120;8.764;2022-10-17T07:06:47;3.03;;;2.00;;
75048;SDS011;63803;53.120;8.764;2022-10-17T07:09:13;4.05;;;2.30;;
75048;SDS011;63803;53.120;8.764;2022-10-17T07:11:39;4.50;;;1.95;;
75048;SDS011;63803;53.120;8.764;2022-10-17T07:14:05;3.35;;;2.20;;
75048;SDS011;63803;53.120;8.764;2022-10-17T07:16:31;2.20;;;2.00;;
75048;SDS011;63803;53.120;8.764;2022-10-17T07:18:57;2.60;;;2.00;;
75048;SDS011;63803;53.120;8.764;2022-10-17T07:21:23;2.92;;;1.85;;
75048;SDS011;63803;53.120;8.764;2022-10-17T07:23:49;3.97;;;2.05;;
75048;SDS011;63803;53.120;8.764;2022-10-17T07:26:15;3.72;;;1.80;;
75048;SDS011;63803;53.120;8.764;2022-10-17T07:28:42;2.25;;;1.70;;
75048;SDS011;63803;53.120;8.764;2022-10-17T07:31:10;3.28;;;2.05;;
75048;SDS011;63803;53.120;8.764;2022-10-17T07:33:41;3.40;;;2.05;;
75048;SDS011;63803;53.120;8.764;2022-10-17T07:36:08;3.20;;;1.83;;
75048;SDS011;63803;53.120;8.764;2022-10-17T07:38:34;2.97;;;1.92;;
75048;SDS011;63803;53.120;8.764;2022-10-17T07:41:01;4.03;;;2.05;;
75048;SDS011;63803;53.120;8.764;2022-10-17T07:43:28;3.40;;;1.98;;
75048;SDS011;63803;53.120;8.764;2022-10-17T07:45:54;2.42;;;2.22;;
75048;SDS011;63803;53.120;8.764;2022-10-17T07:48:21;2.80;;;2.10;;
75048;SDS011;63803;53.120;8.764;2022-10-17T07:50:48;3.03;;;1.88;;
75048;SDS011;63803;53.120;8.764;2022-10-17T07:53:14;2.65;;;2.20;;
75048;SDS011;63803;53.120;8.764;2022-10-17T07:55:41;2.15;;;1.88;;
75048;SDS011;63803;53.120;8.764;2022-10-17T07:58:09;4.10;;;2.08;;
75048;SDS011;63803;53.120;8.764;2022-10-17T08:00:37;2.80;;;2.20;;
75048;SDS011;63803;53.120;8.764;2022-10-17T08:03:04;3.08;;;2.22;;
75048;SDS011;63803;53.120;8.764;2022-10-17T08:05:30;2.10;;;1.90;;
75048;SDS011;63803;53.120;8.764;2022-10-17T08:07:57;3.13;;;1.80;;
75048;SDS011;63803;53.120;8.764;2022-10-17T08:10:23;4.85;;;2.00;;
75048;SDS011;63803;53.120;8.764;2022-10-17T08:12:53;13.32;;;2.08;;
75048;SDS011;63803;53.120;8.764;2022-10-17T08:15:21;4.22;;;2.55;;
75048;SDS011;63803;53.120;8.764;2022-10-17T08:17:47;4.20;;;1.98;;
75048;SDS011;63803;53.120;8.764;2022-10-17T08:20:13;15.15;;;3.03;;
75048;SDS011;63803;53.120;8.764;2022-10-17T08:22:40;20.52;;;3.08;;
75048;SDS011;63803;53.120;8.764;2022-10-17T08:25:06;12.30;;;3.13;;
75048;SDS011;63803;53.120;8.764;2022-10-17T08:27:32;20.90;;;3.53;;
75048;SDS011;63803;53.120;8.764;2022-10-17T08:29:58;10.43;;;3.08;;
75048;SDS011;63803;53.120;8.764;2022-10-17T08:32:25;15.35;;;3.22;;
75048;SDS011;63803;53.120;8.764;2022-10-17T08:34:52;18.90;;;3.30;;
75048;SDS011;63803;53.120;8.764;2022-10-17T08:37:20;10.73;;;2.90;;
75048;SDS011;63803;53.120;8.764;2022-10-17T08:39:48;15.65;;;3.30;;
75048;SDS011;63803;53.120;8.764;2022-10-17T08:47:47;8.52;;;2.97;;
75048;SDS011;63803;53.120;8.764;2022-10-17T08:55:53;10.70;;;2.85;;
75048;SDS011;63803;53.120;8.764;2022-10-17T08:58:20;10.85;;;3.20;;
75048;SDS011;63803;53.120;8.764;2022-10-17T09:00:50;10.27;;;3.03;;
75048;SDS011;63803;53.120;8.764;2022-10-17T09:06:26;19.45;;;2.85;;
75048;SDS011;63803;53.120;8.764;2022-10-17T09:16:46;8.88;;;3.00;;
75048;SDS011;63803;53.120;8.764;2022-10-17T09:19:30;9.75;;;2.90;;
75048;SDS011;63803;53.120;8.764;2022-10-17T09:22:03;7.00;;;2.92;;
75048;SDS011;63803;53.120;8.764;2022-10-17T09:27:03;11.60;;;2.67;;
75048;SDS011;63803;53.120;8.764;2022-10-17T09:29:33;15.32;;;3.10;;
75048;SDS011;63803;53.120;8.764;2022-10-17T09:32:03;8.15;;;3.28;;
75048;SDS011;63803;53.120;8.764;2022-10-17T09:34:39;9.90;;;2.63;;
75048;SDS011;63803;53.120;8.764;2022-10-17T09:37:08;7.38;;;2.88;;
75048;SDS011;63803;53.120;8.764;2022-10-17T09:39:38;6.68;;;2.70;;
75048;SDS011;63803;53.120;8.764;2022-10-17T09:42:06;7.38;;;2.42;;
75048;SDS011;63803;53.120;8.764;2022-10-17T09:44:48;14.70;;;2.80;;
75048;SDS011;63803;53.120;8.764;2022-10-17T09:48:24;9.63;;;2.88;;
75048;SDS011;63803;53.120;8.764;2022-10-17T09:52:52;8.68;;;2.72;;
75048;SDS011;63803;53.120;8.764;2022-10-17T09:58:06;4.47;;;2.50;;
75048;SDS011;63803;53.120;8.764;2022-10-17T10:00:37;4.63;;;2.50;;
75048;SDS011;63803;53.120;8.764;2022-10-17T10:06:04;16.33;;;2.88;;
75048;SDS011;63803;53.120;8.764;2022-10-17T10:08:46;6.72;;;2.33;;
75048;SDS011;63803;53.120;8.764;2022-10-17T10:11:17;6.90;;;2.40;;
75048;SDS011;63803;53.120;8.764;2022-10-17T10:13:47;7.60;;;2.70;;
75048;SDS011;63803;53.120;8.764;2022-10-17T10:18:41;5.22;;;2.75;;
75048;SDS011;63803;53.120;8.764;2022-10-17T10:26:32;8.40;;;2.60;;
75048;SDS011;63803;53.120;8.764;2022-10-17T10:29:21;6.10;;;2.30;;
75048;SDS011;63803;53.120;8.764;2022-10-17T10:31:56;6.43;;;2.58;;
75048;SDS011;63803;53.120;8.764;2022-10-17T10:34:33;6.18;;;2.78;;
75048;SDS011;63803;53.120;8.764;2022-10-17T10:37:02;6.90;;;2.50;;
75048;SDS011;63803;53.120;8.764;2022-10-17T10:39:35;6.63;;;3.20;;
75048;SDS011;63803;53.120;8.764;2022-10-17T10:42:07;7.32;;;2.35;;
75048;SDS011;63803;53.120;8.764;2022-10-17T10:44:45;5.13;;;2.45;;
75048;SDS011;63803;53.120;8.764;2022-10-17T10:47:23;2.67;;;2.15;;
75048;SDS011;63803;53.120;8.764;2022-10-17T10:49:52;5.70;;;2.45;;
75048;SDS011;63803;53.120;8.764;2022-10-17T10:52:44;7.55;;;3.20;;
75048;SDS011;63803;53.120;8.764;2022-10-17T10:55:35;10.43;;;2.47;;
75048;SDS011;63803;53.120;8.764;2022-10-17T11:01:08;9.15;;;2.88;;
75048;SDS011;63803;53.120;8.764;2022-10-17T11:06:18;8.98;;;2.72;;
75048;SDS011;63803;53.120;8.764;2022-10-17T11:08:49;3.28;;;2.35;;
75048;SDS011;63803;53.120;8.764;2022-10-17T11:11:43;3.63;;;2.20;;
75048;SDS011;63803;53.120;8.764;2022-10-17T11:20:08;4.57;;;2.60;;
75048;SDS011;63803;53.120;8.764;2022-10-17T11:22:48;7.28;;;2.40;;
75048;SDS011;63803;53.120;8.764;2022-10-17T11:25:23;6.00;;;2.60;;
75048;SDS011;63803;53.120;8.764;2022-10-17T11:27:56;5.65;;;3.03;;
75048;SDS011;63803;53.120;8.764;2022-10-17T11:30:23;5.88;;;2.88;;
75048;SDS011;63803;53.120;8.764;2022-10-17T11:32:59;4.13;;;2.55;;
75048;SDS011;63803;53.120;8.764;2022-10-17T11:35:37;8.05;;;2.90;;
75048;SDS011;63803;53.120;8.764;2022-10-17T11:38:17;7.03;;;2.35;;
75048;SDS011;63803;53.120;8.764;2022-10-17T11:40:50;7.10;;;2.70;;
75048;SDS011;63803;53.120;8.764;2022-10-17T11:43:19;7.00;;;2.60;;
75048;SDS011;63803;53.120;8.764;2022-10-17T11:46:11;5.22;;;2.28;;
75048;SDS011;63803;53.120;8.764;2022-10-17T11:51:45;5.63;;;2.90;;
75048;SDS011;63803;53.120;8.764;2022-10-17T11:54:16;5.85;;;2.65;;
75048;SDS011;63803;53.120;8.764;2022-10-17T11:56:57;6.32;;;2.72;;
75048;SDS011;63803;53.120;8.764;2022-10-17T12:05:18;3.38;;;2.55;;
75048;SDS011;63803;53.120;8.764;2022-10-17T12:10:50;5.07;;;2.80;;
75048;SDS011;63803;53.120;8.764;2022-10-17T12:16:35;7.78;;;2.85;;
75048;SDS011;63803;53.120;8.764;2022-10-17T12:21:27;4.05;;;2.70;;
75048;SDS011;63803;53.120;8.764;2022-10-17T12:23:53;5.78;;;2.70;;
75048;SDS011;63803;53.120;8.764;2022-10-17T12:26:26;7.00;;;2.75;;
75048;SDS011;63803;53.120;8.764;2022-10-17T12:28:54;6.10;;;2.90;;
75048;SDS011;63803;53.120;8.764;2022-10-17T12:31:22;3.47;;;2.70;;
75048;SDS011;63803;53.120;8.764;2022-10-17T12:33:53;7.47;;;2.90;;
75048;SDS011;63803;53.120;8.764;2022-10-17T12:38:50;7.38;;;2.78;;
75048;SDS011;63803;53.120;8.764;2022-10-17T12:46:50;5.50;;;2.97;;
75048;SDS011;63803;53.120;8.764;2022-10-17T12:54:52;11.43;;;2.63;;
75048;SDS011;63803;53.120;8.764;2022-10-17T13:03:04;6.63;;;3.00;;
75048;SDS011;63803;53.120;8.764;2022-10-17T13:05:40;5.75;;;2.80;;
75048;SDS011;63803;53.120;8.764;2022-10-17T13:08:24;3.25;;;2.72;;
75048;SDS011;63803;53.120;8.764;2022-10-17T13:10:53;4.13;;;2.78;;
75048;SDS011;63803;53.120;8.764;2022-10-17T13:13:22;4.75;;;2.85;;
75048;SDS011;63803;53.120;8.764;2022-10-17T13:18:28;4.07;;;2.95;;
75048;SDS011;63803;53.120;8.764;2022-10-17T13:21:12;4.15;;;3.22;;
75048;SDS011;63803;53.120;8.764;2022-10-17T13:23:40;4.90;;;2.63;;
75048;SDS011;63803;53.120;8.764;2022-10-17T13:26:09;9.70;;;2.78;;
75048;SDS011;63803;53.120;8.764;2022-10-17T13:28:44;6.28;;;2.85;;
75048;SDS011;63803;53.120;8.764;2022-10-17T13:31:33;4.82;;;3.17;;
75048;SDS011;63803;53.120;8.764;2022-10-17T13:33:59;7.68;;;2.67;;
75048;SDS011;63803;53.120;8.764;2022-10-17T13:36:26;6.47;;;2.65;;
75048;SDS011;63803;53.120;8.764;2022-10-17T13:38:53;7.68;;;2.67;;
75048;SDS011;63803;53.120;8.764;2022-10-17T13:41:22;8.27;;;3.38;;
75048;SDS011;63803;53.120;8.764;2022-10-17T13:43:51;6.28;;;3.08;;
75048;SDS011;63803;53.120;8.764;2022-10-17T13:46:26;5.32;;;2.92;;
75048;SDS011;63803;53.120;8.764;2022-10-17T13:48:55;4.68;;;3.03;;
75048;SDS011;63803;53.120;8.764;2022-10-17T13:51:22;7.18;;;3.10;;
75048;SDS011;63803;53.120;8.764;2022-10-17T13:53:50;7.85;;;3.20;;
75048;SDS011;63803;53.120;8.764;2022-10-17T13:58:45;4.65;;;3.20;;
75048;SDS011;63803;53.120;8.764;2022-10-17T14:01:13;5.88;;;3.20;;
75048;SDS011;63803;53.120;8.764;2022-10-17T14:03:43;8.13;;;3.30;;
75048;SDS011;63803;53.120;8.764;2022-10-17T14:08:47;8.07;;;3.80;;
75048;SDS011;63803;53.120;8.764;2022-10-17T14:11:29;4.22;;;3.13;;
75048;SDS011;63803;53.120;8.764;2022-10-17T14:13:59;6.95;;;3.40;;
75048;SDS011;63803;53.120;8.764;2022-10-17T14:16:32;5.60;;;3.38;;
75048;SDS011;63803;53.120;8.764;2022-10-17T14:19:03;8.00;;;3.50;;
75048;SDS011;63803;53.120;8.764;2022-10-17T14:21:30;16.70;;;3.42;;
75048;SDS011;63803;53.120;8.764;2022-10-17T14:24:13;7.20;;;3.28;;
75048;SDS011;63803;53.120;8.764;2022-10-17T14:26:59;10.48;;;3.50;;
75048;SDS011;63803;53.120;8.764;2022-10-17T14:29:27;5.22;;;3.40;;
75048;SDS011;63803;53.120;8.764;2022-10-17T14:32:01;8.70;;;3.03;;
75048;SDS011;63803;53.120;8.764;2022-10-17T14:34:36;6.05;;;3.28;;
75048;SDS011;63803;53.120;8.764;2022-10-17T14:37:08;3.47;;;3.10;;
75048;SDS011;63803;53.120;8.764;2022-10-17T14:39:49;6.72;;;3.53;;
75048;SDS011;63803;53.120;8.764;2022-10-17T14:42:18;6.55;;;3.78;;
75048;SDS011;63803;53.120;8.764;2022-10-17T14:44:49;5.32;;;2.92;;
75048;SDS011;63803;53.120;8.764;2022-10-17T14:47:18;6.32;;;3.45;;
75048;SDS011;63803;53.120;8.764;2022-10-17T14:49:48;7.13;;;3.80;;
75048;SDS011;63803;53.120;8.764;2022-10-17T14:54:44;8.25;;;3.30;;
75048;SDS011;63803;53.120;8.764;2022-10-17T14:59:41;7.03;;;3.45;;
75048;SDS011;63803;53.120;8.764;2022-10-17T15:02:07;5.65;;;3.55;;
75048;SDS011;63803;53.120;8.764;2022-10-17T15:04:34;9.27;;;4.15;;
75048;SDS011;63803;53.120;8.764;2022-10-17T15:07:00;4.55;;;3.38;;
75048;SDS011;63803;53.120;8.764;2022-10-17T15:09:26;4.72;;;3.50;;
75048;SDS011;63803;53.120;8.764;2022-10-17T15:11:59;16.88;;;3.60;;
75048;SDS011;63803;53.120;8.764;2022-10-17T15:14:27;6.70;;;3.50;;
75048;SDS011;63803;53.120;8.764;2022-10-17T15:16:53;5.38;;;3.38;;
75048;SDS011;63803;53.120;8.764;2022-10-17T15:19:18;5.97;;;3.55;;
75048;SDS011;63803;53.120;8.764;2022-10-17T15:21:44;6.63;;;3.70;;
75048;SDS011;63803;53.120;8.764;2022-10-17T15:24:10;6.72;;;3.17;;
75048;SDS011;63803;53.120;8.764;2022-10-17T15:26:36;4.55;;;3.80;;
75048;SDS011;63803;53.120;8.764;2022-10-17T15:29:02;3.75;;;3.30;;
75048;SDS011;63803;53.120;8.764;2022-10-17T15:31:29;13.82;;;3.35;;
75048;SDS011;63803;53.120;8.764;2022-10-17T15:36:25;4.80;;;3.20;;
75048;SDS011;63803;53.120;8.764;2022-10-17T15:39:03;3.38;;;3.08;;
75048;SDS011;63803;53.120;8.764;2022-10-17T15:41:29;6.82;;;4.00;;
75048;SDS011;63803;53.120;8.764;2022-10-17T15:43:56;7.28;;;3.25;;
75048;SDS011;63803;53.120;8.764;2022-10-17T15:46:23;5.45;;;3.60;;
75048;SDS011;63803;53.120;8.764;2022-10-17T15:48:50;7.55;;;3.50;;
75048;SDS011;63803;53.120;8.764;2022-10-17T15:51:20;5.00;;;3.47;;
75048;SDS011;63803;53.120;8.764;2022-10-17T15:53:47;6.10;;;3.30;;
75048;SDS011;63803;53.120;8.764;2022-10-17T15:56:27;5.13;;;3.22;;
75048;SDS011;63803;53.120;8.764;2022-10-17T15:58:55;3.58;;;2.97;;
75048;SDS011;63803;53.120;8.764;2022-10-17T16:01:22;6.40;;;3.35;;
75048;SDS011;63803;53.120;8.764;2022-10-17T16:03:51;6.32;;;3.58;;
75048;SDS011;63803;53.120;8.764;2022-10-17T16:06:18;3.53;;;3.15;;
75048;SDS011;63803;53.120;8.764;2022-10-17T16:08:45;4.68;;;3.20;;
75048;SDS011;63803;53.120;8.764;2022-10-17T16:11:28;5.85;;;3.42;;
75048;SDS011;63803;53.120;8.764;2022-10-17T16:13:58;7.05;;;3.42;;
75048;SDS011;63803;53.120;8.764;2022-10-17T16:16:26;5.57;;;3.40;;
75048;SDS011;63803;53.120;8.764;2022-10-17T16:18:52;6.95;;;3.45;;
75048;SDS011;63803;53.120;8.764;2022-10-17T16:21:19;3.88;;;3.03;;
75048;SDS011;63803;53.120;8.764;2022-10-17T16:23:47;7.22;;;3.75;;
75048;SDS011;63803;53.120;8.764;2022-10-17T16:26:12;5.40;;;3.90;;
75048;SDS011;63803;53.120;8.764;2022-10-17T16:28:40;4.05;;;3.35;;
75048;SDS011;63803;53.120;8.764;2022-10-17T16:31:16;4.65;;;3.35;;
75048;SDS011;63803;53.120;8.764;2022-10-17T16:33:50;4.60;;;3.00;;
75048;SDS011;63803;53.120;8.764;2022-10-17T16:36:17;5.40;;;3.30;;
75048;SDS011;63803;53.120;8.764;2022-10-17T16:38:43;3.83;;;3.10;;
75048;SDS011;63803;53.120;8.764;2022-10-17T16:41:15;4.75;;;3.30;;
75048;SDS011;63803;53.120;8.764;2022-10-17T16:43:48;5.25;;;3.50;;
75048;SDS011;63803;53.120;8.764;2022-10-17T16:46:14;5.30;;;3.38;;
75048;SDS011;63803;53.120;8.764;2022-10-17T16:48:41;5.80;;;3.95;;
75048;SDS011;63803;53.120;8.764;2022-10-17T16:51:08;4.30;;;3.15;;
75048;SDS011;63803;53.120;8.764;2022-10-17T16:53:35;6.20;;;3.55;;
75048;SDS011;63803;53.120;8.764;2022-10-17T16:56:04;4.97;;;3.53;;
75048;SDS011;63803;53.120;8.764;2022-10-17T16:58:31;4.30;;;3.42;;
75048;SDS011;63803;53.120;8.764;2022-10-17T17:01:04;5.13;;;3.70;;
75048;SDS011;63803;53.120;8.764;2022-10-17T17:03:35;5.38;;;3.30;;
75048;SDS011;63803;53.120;8.764;2022-10-17T17:06:02;4.00;;;3.50;;
75048;SDS011;63803;53.120;8.764;2022-10-17T17:08:30;3.80;;;3.20;;
75048;SDS011;63803;53.120;8.764;2022-10-17T17:10:56;4.10;;;3.40;;
75048;SDS011;63803;53.120;8.764;2022-10-17T17:13:23;4.68;;;3.53;;
75048;SDS011;63803;53.120;8.764;2022-10-17T17:15:50;9.75;;;3.67;;
75048;SDS011;63803;53.120;8.764;2022-10-17T17:18:19;5.13;;;3.63;;